sensor_id;sensor_type;location;lat;lon;timestamp;P1;durP1;ratioP1;P2;durP2;ratioP2
6983;SDS011;3532;51.118;7.210;2023-08-01T00:00:51;1.77;;;1.60;;
6983;SDS011;3532;51.118;7.210;2023-08-01T00:03:17;2.43;;;1.83;;
6983;SDS011;3532;51.118;7.210;2023-08-01T00:05:42;1.70;;;1.60;;
6983;SDS011;3532;51.118;7.210;2023-08-01T00:08:10;2.07;;;1.83;;
6983;SDS011;3532;51.118;7.210;2023-08-01T00:10:37;2.53;;;2.33;;
6983;SDS011;3532;51.118;7.210;2023-08-01T00:13:03;3.20;;;2.13;;
6983;SDS011;3532;51.118;7.210;2023-08-01T00:15:28;5.50;;;3.20;;
6983;SDS011;3532;51.118;7.210;2023-08-01T00:17:53;3.67;;;3.03;;
6983;SDS011;3532;51.118;7.210;2023-08-01T00:20:19;4.83;;;3.20;;
6983;SDS011;3532;51.118;7.210;2023-08-01T00:22:44;3.90;;;2.90;;
6983;SDS011;3532;51.118;7.210;2023-08-01T00:25:09;4.17;;;2.90;;
6983;SDS011;3532;51.118;7.210;2023-08-01T00:27:35;3.10;;;2.90;;
6983;SDS011;3532;51.118;7.210;2023-08-01T00:30:01;4.20;;;3.13;;
6983;SDS011;3532;51.118;7.210;2023-08-01T00:32:27;2.73;;;2.23;;
6983;SDS011;3532;51.118;7.210;2023-08-01T00:34:52;2.17;;;1.93;;
6983;SDS011;3532;51.118;7.210;2023-08-01T00:37:17;2.37;;;2.17;;
6983;SDS011;3532;51.118;7.210;2023-08-01T00:39:42;3.57;;;2.30;;
6983;SDS011;3532;51.118;7.210;2023-08-01T00:42:08;1.80;;;1.70;;
6983;SDS011;3532;51.118;7.210;2023-08-01T00:44:33;2.33;;;1.70;;
6983;SDS011;3532;51.118;7.210;2023-08-01T00:46:58;1.70;;;1.60;;
6983;SDS011;3532;51.118;7.210;2023-08-01T00:49:24;1.60;;;1.50;;
6983;SDS011;3532;51.118;7.210;2023-08-01T00:51:49;2.87;;;1.77;;
6983;SDS011;3532;51.118;7.210;2023-08-01T00:54:15;2.23;;;1.67;;
6983;SDS011;3532;51.118;7.210;2023-08-01T00:56:40;5.73;;;1.50;;
6983;SDS011;3532;51.118;7.210;2023-08-01T00:59:05;1.50;;;1.40;;
6983;SDS011;3532;51.118;7.210;2023-08-01T01:01:31;1.77;;;1.60;;
6983;SDS011;3532;51.118;7.210;2023-08-01T01:03:56;5.80;;;1.60;;
6983;SDS011;3532;51.118;7.210;2023-08-01T01:06:31;1.40;;;1.30;;
6983;SDS011;3532;51.118;7.210;2023-08-01T01:08:58;1.77;;;1.50;;
6983;SDS011;3532;51.118;7.210;2023-08-01T01:11:23;1.57;;;1.30;;
6983;SDS011;3532;51.118;7.210;2023-08-01T01:13:48;1.43;;;1.30;;
6983;SDS011;3532;51.118;7.210;2023-08-01T01:16:17;1.50;;;1.40;;
6983;SDS011;3532;51.118;7.210;2023-08-01T01:18:43;3.30;;;1.60;;
6983;SDS011;3532;51.118;7.210;2023-08-01T01:21:08;1.63;;;1.40;;
6983;SDS011;3532;51.118;7.210;2023-08-01T01:23:33;1.50;;;1.40;;
6983;SDS011;3532;51.118;7.210;2023-08-01T01:25:59;1.70;;;1.60;;
6983;SDS011;3532;51.118;7.210;2023-08-01T01:28:25;1.70;;;1.60;;
6983;SDS011;3532;51.118;7.210;2023-08-01T01:30:51;3.00;;;1.80;;
6983;SDS011;3532;51.118;7.210;2023-08-01T01:33:18;1.90;;;1.70;;
6983;SDS011;3532;51.118;7.210;2023-08-01T01:35:43;1.93;;;1.83;;
6983;SDS011;3532;51.118;7.210;2023-08-01T01:38:09;3.33;;;2.13;;
6983;SDS011;3532;51.118;7.210;2023-08-01T01:40:34;1.90;;;1.80;;
6983;SDS011;3532;51.118;7.210;2023-08-01T01:43:00;2.17;;;1.97;;
6983;SDS011;3532;51.118;7.210;2023-08-01T01:45:25;2.10;;;1.90;;
6983;SDS011;3532;51.118;7.210;2023-08-01T01:47:51;2.53;;;2.10;;
6983;SDS011;3532;51.118;7.210;2023-08-01T01:50:16;1.80;;;1.70;;
6983;SDS011;3532;51.118;7.210;2023-08-01T01:52:43;2.53;;;1.90;;
6983;SDS011;3532;51.118;7.210;2023-08-01T01:55:08;2.07;;;1.83;;
6983;SDS011;3532;51.118;7.210;2023-08-01T01:57:34;2.17;;;1.97;;
6983;SDS011;3532;51.118;7.210;2023-08-01T02:00:01;3.23;;;2.10;;
6983;SDS011;3532;51.118;7.210;2023-08-01T02:02:26;2.07;;;1.87;;
6983;SDS011;3532;51.118;7.210;2023-08-01T02:04:52;1.90;;;1.77;;
6983;SDS011;3532;51.118;7.210;2023-08-01T02:07:17;2.47;;;1.73;;
6983;SDS011;3532;51.118;7.210;2023-08-01T02:09:42;1.70;;;1.60;;
6983;SDS011;3532;51.118;7.210;2023-08-01T02:12:08;1.57;;;1.43;;
6983;SDS011;3532;51.118;7.210;2023-08-01T02:14:35;1.53;;;1.43;;
6983;SDS011;3532;51.118;7.210;2023-08-01T02:17:00;1.93;;;1.70;;
6983;SDS011;3532;51.118;7.210;2023-08-01T02:19:26;4.97;;;1.30;;
6983;SDS011;3532;51.118;7.210;2023-08-01T02:21:51;1.70;;;1.50;;
6983;SDS011;3532;51.118;7.210;2023-08-01T02:24:16;1.53;;;1.43;;
6983;SDS011;3532;51.118;7.210;2023-08-01T02:26:42;1.37;;;1.27;;
6983;SDS011;3532;51.118;7.210;2023-08-01T02:29:08;1.50;;;1.40;;
6983;SDS011;3532;51.118;7.210;2023-08-01T02:31:33;1.83;;;1.73;;
6983;SDS011;3532;51.118;7.210;2023-08-01T02:33:58;2.10;;;1.50;;
6983;SDS011;3532;51.118;7.210;2023-08-01T02:36:24;1.90;;;1.80;;
6983;SDS011;3532;51.118;7.210;2023-08-01T02:38:49;1.43;;;1.33;;
6983;SDS011;3532;51.118;7.210;2023-08-01T02:41:14;1.83;;;1.73;;
6983;SDS011;3532;51.118;7.210;2023-08-01T02:43:40;2.30;;;2.10;;
6983;SDS011;3532;51.118;7.210;2023-08-01T02:46:06;2.50;;;2.30;;
6983;SDS011;3532;51.118;7.210;2023-08-01T02:48:31;2.13;;;1.90;;
6983;SDS011;3532;51.118;7.210;2023-08-01T02:50:57;2.37;;;2.17;;
6983;SDS011;3532;51.118;7.210;2023-08-01T02:53:22;2.43;;;2.17;;
6983;SDS011;3532;51.118;7.210;2023-08-01T02:55:48;3.00;;;2.70;;
6983;SDS011;3532;51.118;7.210;2023-08-01T02:58:13;3.17;;;2.93;;
6983;SDS011;3532;51.118;7.210;2023-08-01T03:00:39;3.60;;;3.30;;
6983;SDS011;3532;51.118;7.210;2023-08-01T03:03:05;3.30;;;3.10;;
6983;SDS011;3532;51.118;7.210;2023-08-01T03:05:31;4.47;;;3.43;;
6983;SDS011;3532;51.118;7.210;2023-08-01T03:07:56;5.90;;;5.33;;
6983;SDS011;3532;51.118;7.210;2023-08-01T03:10:22;4.13;;;3.73;;
6983;SDS011;3532;51.118;7.210;2023-08-01T03:12:47;5.13;;;4.70;;
6983;SDS011;3532;51.118;7.210;2023-08-01T03:15:12;4.87;;;4.37;;
6983;SDS011;3532;51.118;7.210;2023-08-01T03:17:37;5.53;;;5.13;;
6983;SDS011;3532;51.118;7.210;2023-08-01T03:20:03;6.50;;;5.90;;
6983;SDS011;3532;51.118;7.210;2023-08-01T03:22:29;5.40;;;4.90;;
6983;SDS011;3532;51.118;7.210;2023-08-01T03:24:54;5.17;;;4.77;;
6983;SDS011;3532;51.118;7.210;2023-08-01T03:27:19;5.37;;;4.97;;
6983;SDS011;3532;51.118;7.210;2023-08-01T03:29:45;6.67;;;5.30;;
6983;SDS011;3532;51.118;7.210;2023-08-01T03:32:10;6.23;;;5.63;;
6983;SDS011;3532;51.118;7.210;2023-08-01T03:34:35;6.57;;;5.67;;
6983;SDS011;3532;51.118;7.210;2023-08-01T03:37:01;7.07;;;6.27;;
6983;SDS011;3532;51.118;7.210;2023-08-01T03:39:26;7.07;;;5.70;;
6983;SDS011;3532;51.118;7.210;2023-08-01T03:41:51;6.10;;;5.60;;
6983;SDS011;3532;51.118;7.210;2023-08-01T03:44:17;8.43;;;6.80;;
6983;SDS011;3532;51.118;7.210;2023-08-01T03:46:42;5.47;;;4.97;;
6983;SDS011;3532;51.118;7.210;2023-08-01T03:49:08;8.47;;;7.30;;
6983;SDS011;3532;51.118;7.210;2023-08-01T03:51:34;8.07;;;6.77;;
6983;SDS011;3532;51.118;7.210;2023-08-01T03:53:59;6.90;;;6.30;;
6983;SDS011;3532;51.118;7.210;2023-08-01T03:56:24;7.37;;;6.43;;
6983;SDS011;3532;51.118;7.210;2023-08-01T03:58:50;7.17;;;6.50;;
6983;SDS011;3532;51.118;7.210;2023-08-01T04:01:15;9.33;;;7.43;;
6983;SDS011;3532;51.118;7.210;2023-08-01T04:03:40;8.17;;;6.70;;
6983;SDS011;3532;51.118;7.210;2023-08-01T04:06:06;9.43;;;6.93;;
6983;SDS011;3532;51.118;7.210;2023-08-01T04:08:33;11.10;;;6.53;;
6983;SDS011;3532;51.118;7.210;2023-08-01T04:10:58;7.90;;;7.10;;
6983;SDS011;3532;51.118;7.210;2023-08-01T04:13:23;7.43;;;6.67;;
6983;SDS011;3532;51.118;7.210;2023-08-01T04:15:49;9.43;;;7.40;;
6983;SDS011;3532;51.118;7.210;2023-08-01T04:18:14;9.73;;;8.73;;
6983;SDS011;3532;51.118;7.210;2023-08-01T04:20:39;11.33;;;8.23;;
6983;SDS011;3532;51.118;7.210;2023-08-01T04:23:04;11.33;;;8.63;;
6983;SDS011;3532;51.118;7.210;2023-08-01T04:25:30;10.07;;;9.07;;
6983;SDS011;3532;51.118;7.210;2023-08-01T04:27:55;10.13;;;9.13;;
6983;SDS011;3532;51.118;7.210;2023-08-01T04:30:20;10.07;;;9.07;;
6983;SDS011;3532;51.118;7.210;2023-08-01T04:32:46;10.43;;;9.30;;
6983;SDS011;3532;51.118;7.210;2023-08-01T04:35:11;10.27;;;8.53;;
6983;SDS011;3532;51.118;7.210;2023-08-01T04:37:36;10.93;;;9.70;;
6983;SDS011;3532;51.118;7.210;2023-08-01T04:40:02;12.43;;;10.33;;
6983;SDS011;3532;51.118;7.210;2023-08-01T04:42:28;12.07;;;10.70;;
6983;SDS011;3532;51.118;7.210;2023-08-01T04:44:53;14.27;;;11.27;;
6983;SDS011;3532;51.118;7.210;2023-08-01T04:47:20;13.27;;;11.50;;
6983;SDS011;3532;51.118;7.210;2023-08-01T04:49:46;13.10;;;10.60;;
6983;SDS011;3532;51.118;7.210;2023-08-01T04:52:11;12.50;;;10.93;;
6983;SDS011;3532;51.118;7.210;2023-08-01T04:54:36;13.30;;;11.93;;
6983;SDS011;3532;51.118;7.210;2023-08-01T04:57:02;13.87;;;11.90;;
6983;SDS011;3532;51.118;7.210;2023-08-01T04:59:27;13.63;;;11.90;;
6983;SDS011;3532;51.118;7.210;2023-08-01T05:01:52;15.93;;;13.93;;
6983;SDS011;3532;51.118;7.210;2023-08-01T05:04:18;15.77;;;13.07;;
6983;SDS011;3532;51.118;7.210;2023-08-01T05:06:43;18.10;;;13.27;;
6983;SDS011;3532;51.118;7.210;2023-08-01T05:09:08;14.33;;;12.17;;
6983;SDS011;3532;51.118;7.210;2023-08-01T05:11:34;15.70;;;14.00;;
6983;SDS011;3532;51.118;7.210;2023-08-01T05:13:59;18.20;;;13.20;;
6983;SDS011;3532;51.118;7.210;2023-08-01T05:16:24;14.57;;;13.07;;
6983;SDS011;3532;51.118;7.210;2023-08-01T05:18:50;18.50;;;13.07;;
6983;SDS011;3532;51.118;7.210;2023-08-01T05:21:15;14.70;;;12.17;;
6983;SDS011;3532;51.118;7.210;2023-08-01T05:23:40;13.87;;;12.37;;
6983;SDS011;3532;51.118;7.210;2023-08-01T05:26:06;14.23;;;12.13;;
6983;SDS011;3532;51.118;7.210;2023-08-01T05:28:31;21.13;;;13.27;;
6983;SDS011;3532;51.118;7.210;2023-08-01T05:30:56;13.53;;;12.13;;
6983;SDS011;3532;51.118;7.210;2023-08-01T05:33:22;16.53;;;12.40;;
6983;SDS011;3532;51.118;7.210;2023-08-01T05:35:48;17.10;;;12.17;;
6983;SDS011;3532;51.118;7.210;2023-08-01T05:38:14;14.37;;;12.20;;
6983;SDS011;3532;51.118;7.210;2023-08-01T05:40:39;13.43;;;11.37;;
6983;SDS011;3532;51.118;7.210;2023-08-01T05:43:04;15.97;;;12.00;;
6983;SDS011;3532;51.118;7.210;2023-08-01T05:45:30;13.67;;;11.70;;
6983;SDS011;3532;51.118;7.210;2023-08-01T05:47:55;14.60;;;11.77;;
6983;SDS011;3532;51.118;7.210;2023-08-01T05:50:20;14.80;;;11.77;;
6983;SDS011;3532;51.118;7.210;2023-08-01T05:52:46;14.77;;;11.17;;
6983;SDS011;3532;51.118;7.210;2023-08-01T05:55:11;16.77;;;12.37;;
6983;SDS011;3532;51.118;7.210;2023-08-01T05:57:36;14.57;;;11.10;;
6983;SDS011;3532;51.118;7.210;2023-08-01T06:00:02;11.80;;;10.33;;
6983;SDS011;3532;51.118;7.210;2023-08-01T06:02:27;11.97;;;10.33;;
6983;SDS011;3532;51.118;7.210;2023-08-01T06:04:53;12.63;;;11.33;;
6983;SDS011;3532;51.118;7.210;2023-08-01T06:07:18;14.50;;;10.43;;
6983;SDS011;3532;51.118;7.210;2023-08-01T06:09:47;13.40;;;10.07;;
6983;SDS011;3532;51.118;7.210;2023-08-01T06:12:15;14.57;;;10.23;;
6983;SDS011;3532;51.118;7.210;2023-08-01T06:14:40;12.10;;;10.07;;
6983;SDS011;3532;51.118;7.210;2023-08-01T06:17:06;11.70;;;10.33;;
6983;SDS011;3532;51.118;7.210;2023-08-01T06:19:31;17.40;;;10.80;;
6983;SDS011;3532;51.118;7.210;2023-08-01T06:21:56;14.90;;;10.20;;
6983;SDS011;3532;51.118;7.210;2023-08-01T06:24:21;14.27;;;10.17;;
6983;SDS011;3532;51.118;7.210;2023-08-01T06:26:47;15.47;;;10.53;;
6983;SDS011;3532;51.118;7.210;2023-08-01T06:29:12;10.90;;;9.57;;
6983;SDS011;3532;51.118;7.210;2023-08-01T06:31:37;12.73;;;9.43;;
6983;SDS011;3532;51.118;7.210;2023-08-01T06:34:03;10.37;;;8.93;;
6983;SDS011;3532;51.118;7.210;2023-08-01T06:36:28;12.47;;;9.20;;
6983;SDS011;3532;51.118;7.210;2023-08-01T06:38:53;15.97;;;9.50;;
6983;SDS011;3532;51.118;7.210;2023-08-01T06:41:18;12.40;;;9.37;;
6983;SDS011;3532;51.118;7.210;2023-08-01T06:43:44;12.03;;;9.87;;
6983;SDS011;3532;51.118;7.210;2023-08-01T06:46:09;10.07;;;8.87;;
6983;SDS011;3532;51.118;7.210;2023-08-01T06:48:34;11.43;;;8.47;;
6983;SDS011;3532;51.118;7.210;2023-08-01T06:51:00;18.40;;;9.90;;
6983;SDS011;3532;51.118;7.210;2023-08-01T06:53:26;11.93;;;8.50;;
6983;SDS011;3532;51.118;7.210;2023-08-01T06:55:52;12.30;;;9.00;;
6983;SDS011;3532;51.118;7.210;2023-08-01T06:58:17;14.70;;;9.33;;
6983;SDS011;3532;51.118;7.210;2023-08-01T07:00:43;12.53;;;9.20;;
6983;SDS011;3532;51.118;7.210;2023-08-01T07:03:09;12.47;;;8.63;;
6983;SDS011;3532;51.118;7.210;2023-08-01T07:05:34;15.70;;;8.97;;
6983;SDS011;3532;51.118;7.210;2023-08-01T07:07:59;10.77;;;8.50;;
6983;SDS011;3532;51.118;7.210;2023-08-01T07:10:25;11.13;;;8.67;;
6983;SDS011;3532;51.118;7.210;2023-08-01T07:12:50;11.10;;;8.27;;
6983;SDS011;3532;51.118;7.210;2023-08-01T07:15:15;13.30;;;8.63;;
6983;SDS011;3532;51.118;7.210;2023-08-01T07:17:41;9.90;;;8.20;;
6983;SDS011;3532;51.118;7.210;2023-08-01T07:20:06;13.37;;;7.87;;
6983;SDS011;3532;51.118;7.210;2023-08-01T07:22:31;10.53;;;7.60;;
6983;SDS011;3532;51.118;7.210;2023-08-01T07:24:57;11.30;;;7.20;;
6983;SDS011;3532;51.118;7.210;2023-08-01T07:27:22;8.77;;;7.40;;
6983;SDS011;3532;51.118;7.210;2023-08-01T07:29:48;13.47;;;7.93;;
6983;SDS011;3532;51.118;7.210;2023-08-01T07:32:13;12.03;;;7.43;;
6983;SDS011;3532;51.118;7.210;2023-08-01T07:34:39;10.67;;;7.77;;
6983;SDS011;3532;51.118;7.210;2023-08-01T07:37:04;10.93;;;7.27;;
6983;SDS011;3532;51.118;7.210;2023-08-01T07:39:30;12.17;;;7.60;;
6983;SDS011;3532;51.118;7.210;2023-08-01T07:41:55;11.20;;;6.83;;
6983;SDS011;3532;51.118;7.210;2023-08-01T07:44:21;9.27;;;6.90;;
6983;SDS011;3532;51.118;7.210;2023-08-01T07:46:46;11.03;;;6.87;;
6983;SDS011;3532;51.118;7.210;2023-08-01T07:49:11;7.80;;;6.70;;
6983;SDS011;3532;51.118;7.210;2023-08-01T07:51:37;10.73;;;7.17;;
6983;SDS011;3532;51.118;7.210;2023-08-01T07:54:02;11.07;;;6.87;;
6983;SDS011;3532;51.118;7.210;2023-08-01T07:56:27;12.03;;;7.27;;
6983;SDS011;3532;51.118;7.210;2023-08-01T07:58:53;7.53;;;6.83;;
6983;SDS011;3532;51.118;7.210;2023-08-01T08:01:18;9.53;;;6.93;;
6983;SDS011;3532;51.118;7.210;2023-08-01T08:03:43;10.43;;;7.47;;
6983;SDS011;3532;51.118;7.210;2023-08-01T08:06:09;11.37;;;7.33;;
6983;SDS011;3532;51.118;7.210;2023-08-01T08:08:34;11.73;;;7.43;;
6983;SDS011;3532;51.118;7.210;2023-08-01T08:11:01;9.90;;;7.53;;
6983;SDS011;3532;51.118;7.210;2023-08-01T08:13:27;10.00;;;7.07;;
6983;SDS011;3532;51.118;7.210;2023-08-01T08:15:54;10.33;;;7.60;;
6983;SDS011;3532;51.118;7.210;2023-08-01T08:18:21;10.93;;;7.37;;
6983;SDS011;3532;51.118;7.210;2023-08-01T08:20:46;11.37;;;6.87;;
6983;SDS011;3532;51.118;7.210;2023-08-01T08:23:11;9.27;;;6.80;;
6983;SDS011;3532;51.118;7.210;2023-08-01T08:25:40;10.27;;;6.93;;
6983;SDS011;3532;51.118;7.210;2023-08-01T08:28:06;10.07;;;7.07;;
6983;SDS011;3532;51.118;7.210;2023-08-01T08:30:31;11.80;;;7.97;;
6983;SDS011;3532;51.118;7.210;2023-08-01T08:32:57;21.93;;;8.80;;
6983;SDS011;3532;51.118;7.210;2023-08-01T08:35:23;8.03;;;7.23;;
6983;SDS011;3532;51.118;7.210;2023-08-01T08:37:48;9.60;;;8.07;;
6983;SDS011;3532;51.118;7.210;2023-08-01T08:40:13;15.50;;;7.87;;
6983;SDS011;3532;51.118;7.210;2023-08-01T08:42:39;11.03;;;7.70;;
6983;SDS011;3532;51.118;7.210;2023-08-01T08:45:04;12.17;;;7.73;;
6983;SDS011;3532;51.118;7.210;2023-08-01T08:47:31;7.70;;;6.70;;
6983;SDS011;3532;51.118;7.210;2023-08-01T08:50:01;11.77;;;7.13;;
6983;SDS011;3532;51.118;7.210;2023-08-01T08:52:26;9.27;;;6.80;;
6983;SDS011;3532;51.118;7.210;2023-08-01T08:54:52;11.33;;;6.50;;
6983;SDS011;3532;51.118;7.210;2023-08-01T08:57:18;8.70;;;6.80;;
6983;SDS011;3532;51.118;7.210;2023-08-01T08:59:44;14.00;;;6.27;;
6983;SDS011;3532;51.118;7.210;2023-08-01T09:02:10;9.57;;;6.73;;
6983;SDS011;3532;51.118;7.210;2023-08-01T09:04:35;9.83;;;6.63;;
6983;SDS011;3532;51.118;7.210;2023-08-01T09:07:06;10.50;;;6.23;;
6983;SDS011;3532;51.118;7.210;2023-08-01T09:09:33;9.27;;;6.40;;
6983;SDS011;3532;51.118;7.210;2023-08-01T09:11:59;10.53;;;6.77;;
6983;SDS011;3532;51.118;7.210;2023-08-01T09:14:25;8.30;;;6.60;;
6983;SDS011;3532;51.118;7.210;2023-08-01T09:16:50;10.27;;;6.53;;
6983;SDS011;3532;51.118;7.210;2023-08-01T09:19:23;7.77;;;5.87;;
6983;SDS011;3532;51.118;7.210;2023-08-01T09:21:50;10.07;;;6.03;;
6983;SDS011;3532;51.118;7.210;2023-08-01T09:24:19;8.53;;;6.30;;
6983;SDS011;3532;51.118;7.210;2023-08-01T09:26:47;8.53;;;6.67;;
6983;SDS011;3532;51.118;7.210;2023-08-01T09:29:13;9.87;;;6.67;;
6983;SDS011;3532;51.118;7.210;2023-08-01T09:31:39;8.13;;;6.47;;
6983;SDS011;3532;51.118;7.210;2023-08-01T09:34:06;15.77;;;7.27;;
6983;SDS011;3532;51.118;7.210;2023-08-01T09:36:43;7.77;;;6.20;;
6983;SDS011;3532;51.118;7.210;2023-08-01T09:39:15;7.93;;;5.20;;
6983;SDS011;3532;51.118;7.210;2023-08-01T09:41:42;12.57;;;6.30;;
6983;SDS011;3532;51.118;7.210;2023-08-01T09:44:11;8.60;;;5.63;;
6983;SDS011;3532;51.118;7.210;2023-08-01T09:46:37;9.93;;;6.27;;
6983;SDS011;3532;51.118;7.210;2023-08-01T09:49:08;6.93;;;5.30;;
6983;SDS011;3532;51.118;7.210;2023-08-01T09:51:49;7.90;;;4.93;;
6983;SDS011;3532;51.118;7.210;2023-08-01T09:54:15;6.53;;;5.53;;
6983;SDS011;3532;51.118;7.210;2023-08-01T09:56:43;9.03;;;6.20;;
6983;SDS011;3532;51.118;7.210;2023-08-01T09:59:10;7.80;;;5.50;;
6983;SDS011;3532;51.118;7.210;2023-08-01T10:01:35;8.23;;;5.20;;
6983;SDS011;3532;51.118;7.210;2023-08-01T10:04:01;8.20;;;5.50;;
6983;SDS011;3532;51.118;7.210;2023-08-01T10:06:28;7.37;;;4.87;;
6983;SDS011;3532;51.118;7.210;2023-08-01T10:08:54;8.90;;;5.90;;
6983;SDS011;3532;51.118;7.210;2023-08-01T10:11:20;8.83;;;5.30;;
6983;SDS011;3532;51.118;7.210;2023-08-01T10:13:46;6.60;;;5.70;;
6983;SDS011;3532;51.118;7.210;2023-08-01T10:16:12;8.47;;;6.00;;
6983;SDS011;3532;51.118;7.210;2023-08-01T10:18:38;5.67;;;5.10;;
6983;SDS011;3532;51.118;7.210;2023-08-01T10:21:05;7.90;;;5.70;;
6983;SDS011;3532;51.118;7.210;2023-08-01T10:23:32;5.90;;;5.07;;
6983;SDS011;3532;51.118;7.210;2023-08-01T10:25:58;8.27;;;5.23;;
6983;SDS011;3532;51.118;7.210;2023-08-01T10:28:34;7.67;;;4.53;;
6983;SDS011;3532;51.118;7.210;2023-08-01T10:31:10;5.60;;;4.80;;
6983;SDS011;3532;51.118;7.210;2023-08-01T10:33:37;6.00;;;4.50;;
6983;SDS011;3532;51.118;7.210;2023-08-01T10:36:13;8.70;;;4.63;;
6983;SDS011;3532;51.118;7.210;2023-08-01T10:38:46;4.53;;;3.93;;
6983;SDS011;3532;51.118;7.210;2023-08-01T10:41:19;7.13;;;4.23;;
6983;SDS011;3532;51.118;7.210;2023-08-01T10:43:46;3.93;;;3.53;;
6983;SDS011;3532;51.118;7.210;2023-08-01T10:46:11;6.20;;;4.80;;
6983;SDS011;3532;51.118;7.210;2023-08-01T10:48:47;6.53;;;4.67;;
6983;SDS011;3532;51.118;7.210;2023-08-01T10:51:13;10.43;;;4.70;;
6983;SDS011;3532;51.118;7.210;2023-08-01T10:53:39;5.63;;;4.77;;
6983;SDS011;3532;51.118;7.210;2023-08-01T10:56:04;6.90;;;4.10;;
6983;SDS011;3532;51.118;7.210;2023-08-01T10:58:29;4.97;;;4.23;;
6983;SDS011;3532;51.118;7.210;2023-08-01T11:00:58;6.37;;;4.50;;
6983;SDS011;3532;51.118;7.210;2023-08-01T11:03:37;5.47;;;4.30;;
6983;SDS011;3532;51.118;7.210;2023-08-01T11:06:03;5.00;;;4.47;;
6983;SDS011;3532;51.118;7.210;2023-08-01T11:08:38;5.97;;;3.93;;
6983;SDS011;3532;51.118;7.210;2023-08-01T11:11:05;4.97;;;3.90;;
6983;SDS011;3532;51.118;7.210;2023-08-01T11:13:32;6.73;;;4.60;;
6983;SDS011;3532;51.118;7.210;2023-08-01T11:16:00;5.13;;;4.63;;
6983;SDS011;3532;51.118;7.210;2023-08-01T11:18:27;4.83;;;4.30;;
6983;SDS011;3532;51.118;7.210;2023-08-01T11:20:52;6.27;;;4.67;;
6983;SDS011;3532;51.118;7.210;2023-08-01T11:23:17;5.77;;;4.47;;
6983;SDS011;3532;51.118;7.210;2023-08-01T11:25:43;5.27;;;4.30;;
6983;SDS011;3532;51.118;7.210;2023-08-01T11:28:11;6.80;;;4.30;;
6983;SDS011;3532;51.118;7.210;2023-08-01T11:30:40;6.33;;;4.33;;
6983;SDS011;3532;51.118;7.210;2023-08-01T11:33:13;7.20;;;4.17;;
6983;SDS011;3532;51.118;7.210;2023-08-01T11:35:42;5.93;;;4.53;;
6983;SDS011;3532;51.118;7.210;2023-08-01T11:38:08;13.00;;;5.10;;
6983;SDS011;3532;51.118;7.210;2023-08-01T11:40:33;10.33;;;5.70;;
6983;SDS011;3532;51.118;7.210;2023-08-01T11:42:59;20.70;;;7.83;;
6983;SDS011;3532;51.118;7.210;2023-08-01T11:45:24;10.40;;;5.10;;
6983;SDS011;3532;51.118;7.210;2023-08-01T11:47:50;6.93;;;4.70;;
6983;SDS011;3532;51.118;7.210;2023-08-01T11:50:23;7.63;;;4.50;;
6983;SDS011;3532;51.118;7.210;2023-08-01T11:52:51;4.87;;;4.20;;
6983;SDS011;3532;51.118;7.210;2023-08-01T11:57:57;6.43;;;4.63;;
6983;SDS011;3532;51.118;7.210;2023-08-01T12:00:27;5.90;;;4.27;;
6983;SDS011;3532;51.118;7.210;2023-08-01T12:03:03;7.00;;;4.10;;
6983;SDS011;3532;51.118;7.210;2023-08-01T12:05:29;5.33;;;3.70;;
6983;SDS011;3532;51.118;7.210;2023-08-01T12:07:55;4.57;;;3.60;;
6983;SDS011;3532;51.118;7.210;2023-08-01T12:10:20;6.53;;;3.83;;
6983;SDS011;3532;51.118;7.210;2023-08-01T12:12:46;3.57;;;2.40;;
6983;SDS011;3532;51.118;7.210;2023-08-01T12:15:12;3.90;;;2.63;;
6983;SDS011;3532;51.118;7.210;2023-08-01T12:17:39;3.97;;;2.90;;
6983;SDS011;3532;51.118;7.210;2023-08-01T12:20:04;3.03;;;2.73;;
6983;SDS011;3532;51.118;7.210;2023-08-01T12:22:30;5.00;;;2.87;;
6983;SDS011;3532;51.118;7.210;2023-08-01T12:24:55;4.47;;;2.83;;
6983;SDS011;3532;51.118;7.210;2023-08-01T12:27:21;3.53;;;2.97;;
6983;SDS011;3532;51.118;7.210;2023-08-01T12:29:46;3.53;;;2.80;;
6983;SDS011;3532;51.118;7.210;2023-08-01T12:32:11;4.93;;;3.37;;
6983;SDS011;3532;51.118;7.210;2023-08-01T12:34:37;4.63;;;3.60;;
6983;SDS011;3532;51.118;7.210;2023-08-01T12:37:03;4.00;;;3.63;;
6983;SDS011;3532;51.118;7.210;2023-08-01T12:39:28;5.63;;;3.30;;
6983;SDS011;3532;51.118;7.210;2023-08-01T12:41:54;3.67;;;3.33;;
6983;SDS011;3532;51.118;7.210;2023-08-01T12:44:20;3.53;;;3.23;;
6983;SDS011;3532;51.118;7.210;2023-08-01T12:46:45;5.07;;;3.30;;
6983;SDS011;3532;51.118;7.210;2023-08-01T12:49:11;3.53;;;3.10;;
6983;SDS011;3532;51.118;7.210;2023-08-01T12:51:36;6.13;;;3.30;;
6983;SDS011;3532;51.118;7.210;2023-08-01T12:54:02;6.70;;;3.30;;
6983;SDS011;3532;51.118;7.210;2023-08-01T12:56:28;3.90;;;3.50;;
6983;SDS011;3532;51.118;7.210;2023-08-01T12:58:53;5.63;;;3.40;;
6983;SDS011;3532;51.118;7.210;2023-08-01T13:01:18;3.87;;;3.30;;
6983;SDS011;3532;51.118;7.210;2023-08-01T13:03:44;4.80;;;3.40;;
6983;SDS011;3532;51.118;7.210;2023-08-01T13:06:12;3.67;;;3.17;;
6983;SDS011;3532;51.118;7.210;2023-08-01T13:08:38;6.13;;;3.60;;
6983;SDS011;3532;51.118;7.210;2023-08-01T13:11:09;4.50;;;4.07;;
6983;SDS011;3532;51.118;7.210;2023-08-01T13:13:35;4.47;;;4.07;;
6983;SDS011;3532;51.118;7.210;2023-08-01T13:16:00;5.27;;;3.90;;
6983;SDS011;3532;51.118;7.210;2023-08-01T13:18:26;5.30;;;4.17;;
6983;SDS011;3532;51.118;7.210;2023-08-01T13:20:51;3.80;;;3.50;;
6983;SDS011;3532;51.118;7.210;2023-08-01T13:23:16;4.37;;;3.93;;
6983;SDS011;3532;51.118;7.210;2023-08-01T13:25:42;5.70;;;4.00;;
6983;SDS011;3532;51.118;7.210;2023-08-01T13:28:08;7.73;;;4.43;;
6983;SDS011;3532;51.118;7.210;2023-08-01T13:30:33;4.50;;;3.87;;
6983;SDS011;3532;51.118;7.210;2023-08-01T13:32:58;4.67;;;3.97;;
6983;SDS011;3532;51.118;7.210;2023-08-01T13:35:23;6.23;;;4.30;;
6983;SDS011;3532;51.118;7.210;2023-08-01T13:37:49;4.47;;;4.07;;
6983;SDS011;3532;51.118;7.210;2023-08-01T13:40:14;4.77;;;4.13;;
6983;SDS011;3532;51.118;7.210;2023-08-01T13:42:40;7.00;;;4.83;;
6983;SDS011;3532;51.118;7.210;2023-08-01T13:45:05;6.07;;;4.33;;
6983;SDS011;3532;51.118;7.210;2023-08-01T13:47:31;5.27;;;4.60;;
6983;SDS011;3532;51.118;7.210;2023-08-01T13:49:57;5.03;;;4.53;;
6983;SDS011;3532;51.118;7.210;2023-08-01T13:52:22;4.60;;;4.20;;
6983;SDS011;3532;51.118;7.210;2023-08-01T13:54:47;4.93;;;4.27;;
6983;SDS011;3532;51.118;7.210;2023-08-01T13:57:12;4.70;;;4.20;;
6983;SDS011;3532;51.118;7.210;2023-08-01T13:59:38;4.27;;;3.80;;
6983;SDS011;3532;51.118;7.210;2023-08-01T14:02:03;6.03;;;4.53;;
6983;SDS011;3532;51.118;7.210;2023-08-01T14:04:29;5.67;;;3.87;;
6983;SDS011;3532;51.118;7.210;2023-08-01T14:06:54;5.77;;;4.37;;
6983;SDS011;3532;51.118;7.210;2023-08-01T14:09:20;5.87;;;4.60;;
6983;SDS011;3532;51.118;7.210;2023-08-01T14:11:45;6.10;;;4.47;;
6983;SDS011;3532;51.118;7.210;2023-08-01T14:14:10;5.83;;;4.07;;
6983;SDS011;3532;51.118;7.210;2023-08-01T14:16:36;4.17;;;3.77;;
6983;SDS011;3532;51.118;7.210;2023-08-01T14:19:01;5.27;;;4.70;;
6983;SDS011;3532;51.118;7.210;2023-08-01T14:21:28;4.53;;;4.13;;
6983;SDS011;3532;51.118;7.210;2023-08-01T14:23:54;6.03;;;4.27;;
6983;SDS011;3532;51.118;7.210;2023-08-01T14:26:19;6.90;;;4.80;;
6983;SDS011;3532;51.118;7.210;2023-08-01T14:28:44;5.70;;;4.77;;
6983;SDS011;3532;51.118;7.210;2023-08-01T14:31:11;6.43;;;5.20;;
6983;SDS011;3532;51.118;7.210;2023-08-01T14:33:36;6.17;;;4.27;;
6983;SDS011;3532;51.118;7.210;2023-08-01T14:36:01;7.83;;;4.37;;
6983;SDS011;3532;51.118;7.210;2023-08-01T14:38:27;8.47;;;5.00;;
6983;SDS011;3532;51.118;7.210;2023-08-01T14:40:52;5.53;;;4.57;;
6983;SDS011;3532;51.118;7.210;2023-08-01T14:43:18;8.97;;;5.63;;
6983;SDS011;3532;51.118;7.210;2023-08-01T14:45:43;6.93;;;5.00;;
6983;SDS011;3532;51.118;7.210;2023-08-01T14:48:08;5.77;;;4.60;;
6983;SDS011;3532;51.118;7.210;2023-08-01T14:50:34;7.33;;;5.40;;
6983;SDS011;3532;51.118;7.210;2023-08-01T14:53:00;6.50;;;5.67;;
6983;SDS011;3532;51.118;7.210;2023-08-01T14:55:27;6.17;;;4.97;;
6983;SDS011;3532;51.118;7.210;2023-08-01T14:57:53;5.87;;;4.97;;
6983;SDS011;3532;51.118;7.210;2023-08-01T15:00:18;6.17;;;5.23;;
6983;SDS011;3532;51.118;7.210;2023-08-01T15:02:44;5.77;;;5.27;;
6983;SDS011;3532;51.118;7.210;2023-08-01T15:05:09;8.50;;;5.13;;